sensor_id;sensor_type;location;lat;lon;timestamp;temperature;humidity
22908;DHT22;11620;50.050;8.690;2023-08-07T00:02:04;11.80;99.90
22908;DHT22;11620;50.050;8.690;2023-08-07T00:04:50;11.80;99.90
22908;DHT22;11620;50.050;8.690;2023-08-07T00:07:36;11.70;99.90
22908;DHT22;11620;50.050;8.690;2023-08-07T00:10:23;11.80;99.90
22908;DHT22;11620;50.050;8.690;2023-08-07T00:13:10;11.70;99.90
22908;DHT22;11620;50.050;8.690;2023-08-07T00:15:56;11.60;99.90
22908;DHT22;11620;50.050;8.690;2023-08-07T00:18:43;11.60;99.90
22908;DHT22;11620;50.050;8.690;2023-08-07T00:21:29;11.50;99.90
22908;DHT22;11620;50.050;8.690;2023-08-07T00:24:15;11.70;99.90
22908;DHT22;11620;50.050;8.690;2023-08-07T00:27:02;11.50;99.90
22908;DHT22;11620;50.050;8.690;2023-08-07T00:29:49;11.50;99.90
22908;DHT22;11620;50.050;8.690;2023-08-07T00:32:35;11.40;99.90
22908;DHT22;11620;50.050;8.690;2023-08-07T00:35:21;11.40;99.90
22908;DHT22;11620;50.050;8.690;2023-08-07T00:38:08;11.40;99.90
22908;DHT22;11620;50.050;8.690;2023-08-07T00:40:54;11.50;99.90
22908;DHT22;11620;50.050;8.690;2023-08-07T00:43:40;11.50;99.90
22908;DHT22;11620;50.050;8.690;2023-08-07T00:46:28;11.50;99.90
22908;DHT22;11620;50.050;8.690;2023-08-07T00:49:15;11.50;99.90
22908;DHT22;11620;50.050;8.690;2023-08-07T00:52:03;11.50;99.90
22908;DHT22;11620;50.050;8.690;2023-08-07T00:54:50;11.50;99.90
22908;DHT22;11620;50.050;8.690;2023-08-07T00:57:36;11.30;99.90
22908;DHT22;11620;50.050;8.690;2023-08-07T01:00:23;11.30;99.90
22908;DHT22;11620;50.050;8.690;2023-08-07T01:03:11;11.30;99.90
22908;DHT22;11620;50.050;8.690;2023-08-07T01:05:58;11.30;99.90
22908;DHT22;11620;50.050;8.690;2023-08-07T01:08:46;11.30;99.90
22908;DHT22;11620;50.050;8.690;2023-08-07T01:11:46;11.40;99.90
22908;DHT22;11620;50.050;8.690;2023-08-07T01:14:37;11.30;99.90
22908;DHT22;11620;50.050;8.690;2023-08-07T01:17:27;11.30;99.90
22908;DHT22;11620;50.050;8.690;2023-08-07T01:20:14;11.40;99.90
22908;DHT22;11620;50.050;8.690;2023-08-07T01:23:00;11.40;99.90
22908;DHT22;11620;50.050;8.690;2023-08-07T01:25:47;11.40;99.90
22908;DHT22;11620;50.050;8.690;2023-08-07T01:28:37;11.30;99.90
22908;DHT22;11620;50.050;8.690;2023-08-07T01:31:24;11.30;99.90
22908;DHT22;11620;50.050;8.690;2023-08-07T01:34:13;11.30;99.90
22908;DHT22;11620;50.050;8.690;2023-08-07T01:37:03;11.30;99.90
22908;DHT22;11620;50.050;8.690;2023-08-07T01:39:51;11.20;99.90
22908;DHT22;11620;50.050;8.690;2023-08-07T01:42:39;11.20;99.90
22908;DHT22;11620;50.050;8.690;2023-08-07T01:45:27;11.20;99.90
22908;DHT22;11620;50.050;8.690;2023-08-07T01:48:14;11.30;99.90
22908;DHT22;11620;50.050;8.690;2023-08-07T01:51:00;11.30;99.90
22908;DHT22;11620;50.050;8.690;2023-08-07T01:53:46;11.30;99.90
22908;DHT22;11620;50.050;8.690;2023-08-07T01:56:33;11.30;99.90
22908;DHT22;11620;50.050;8.690;2023-08-07T01:59:20;11.30;99.90
22908;DHT22;11620;50.050;8.690;2023-08-07T02:02:06;11.30;99.90
22908;DHT22;11620;50.050;8.690;2023-08-07T02:04:52;11.20;99.90
22908;DHT22;11620;50.050;8.690;2023-08-07T02:07:39;11.30;99.90
22908;DHT22;11620;50.050;8.690;2023-08-07T02:10:25;11.30;99.90
22908;DHT22;11620;50.050;8.690;2023-08-07T02:13:11;11.20;99.90
22908;DHT22;11620;50.050;8.690;2023-08-07T02:15:58;11.30;99.90
22908;DHT22;11620;50.050;8.690;2023-08-07T02:18:44;11.40;99.90
22908;DHT22;11620;50.050;8.690;2023-08-07T02:21:31;11.40;99.90
22908;DHT22;11620;50.050;8.690;2023-08-07T02:24:18;11.40;99.90
22908;DHT22;11620;50.050;8.690;2023-08-07T02:27:05;11.40;99.90
22908;DHT22;11620;50.050;8.690;2023-08-07T02:29:52;11.40;99.90
22908;DHT22;11620;50.050;8.690;2023-08-07T02:32:39;11.40;99.90
22908;DHT22;11620;50.050;8.690;2023-08-07T02:35:27;11.40;99.90
22908;DHT22;11620;50.050;8.690;2023-08-07T02:38:13;11.40;99.90
22908;DHT22;11620;50.050;8.690;2023-08-07T02:41:00;11.30;99.90
22908;DHT22;11620;50.050;8.690;2023-08-07T02:43:46;11.30;99.90
22908;DHT22;11620;50.050;8.690;2023-08-07T02:46:32;11.40;99.90
22908;DHT22;11620;50.050;8.690;2023-08-07T02:49:22;11.40;99.90
22908;DHT22;11620;50.050;8.690;2023-08-07T02:52:08;11.40;99.90
22908;DHT22;11620;50.050;8.690;2023-08-07T02:54:54;11.50;99.90
22908;DHT22;11620;50.050;8.690;2023-08-07T02:57:40;11.40;99.90
22908;DHT22;11620;50.050;8.690;2023-08-07T03:00:27;11.30;99.90
22908;DHT22;11620;50.050;8.690;2023-08-07T03:03:13;11.30;99.90
22908;DHT22;11620;50.050;8.690;2023-08-07T03:06:00;11.30;99.90
22908;DHT22;11620;50.050;8.690;2023-08-07T03:08:46;11.30;99.90
22908;DHT22;11620;50.050;8.690;2023-08-07T03:11:33;11.30;99.90
22908;DHT22;11620;50.050;8.690;2023-08-07T03:14:19;11.30;99.90
22908;DHT22;11620;50.050;8.690;2023-08-07T03:17:05;11.30;99.90
22908;DHT22;11620;50.050;8.690;2023-08-07T03:19:52;11.30;99.90
22908;DHT22;11620;50.050;8.690;2023-08-07T03:22:38;11.20;99.90
22908;DHT22;11620;50.050;8.690;2023-08-07T03:25:24;11.20;99.90
22908;DHT22;11620;50.050;8.690;2023-08-07T03:28:11;11.30;99.90
22908;DHT22;11620;50.050;8.690;2023-08-07T03:30:57;11.30;99.90
22908;DHT22;11620;50.050;8.690;2023-08-07T03:33:43;11.20;99.90
22908;DHT22;11620;50.050;8.690;2023-08-07T03:36:30;11.30;99.90
22908;DHT22;11620;50.050;8.690;2023-08-07T03:39:16;11.30;99.90
22908;DHT22;11620;50.050;8.690;2023-08-07T03:42:02;11.30;99.90
22908;DHT22;11620;50.050;8.690;2023-08-07T03:44:49;11.30;99.90
22908;DHT22;11620;50.050;8.690;2023-08-07T03:47:35;11.30;99.90
22908;DHT22;11620;50.050;8.690;2023-08-07T03:50:21;11.30;99.90
22908;DHT22;11620;50.050;8.690;2023-08-07T03:53:08;11.30;99.90
22908;DHT22;11620;50.050;8.690;2023-08-07T03:55:54;11.30;99.90
22908;DHT22;11620;50.050;8.690;2023-08-07T03:58:41;11.30;99.90
22908;DHT22;11620;50.050;8.690;2023-08-07T04:01:27;11.30;99.90
22908;DHT22;11620;50.050;8.690;2023-08-07T04:04:14;11.30;99.90
22908;DHT22;11620;50.050;8.690;2023-08-07T04:07:00;11.40;99.90
22908;DHT22;11620;50.050;8.690;2023-08-07T04:09:47;11.40;99.90
22908;DHT22;11620;50.050;8.690;2023-08-07T04:12:33;11.40;99.90
22908;DHT22;11620;50.050;8.690;2023-08-07T04:15:20;11.40;99.90
22908;DHT22;11620;50.050;8.690;2023-08-07T04:18:06;11.30;99.90
22908;DHT22;11620;50.050;8.690;2023-08-07T04:20:56;11.30;99.90
22908;DHT22;11620;50.050;8.690;2023-08-07T04:23:42;11.30;99.90
22908;DHT22;11620;50.050;8.690;2023-08-07T04:26:28;11.40;99.90
22908;DHT22;11620;50.050;8.690;2023-08-07T04:29:15;11.40;99.90
22908;DHT22;11620;50.050;8.690;2023-08-07T04:32:01;11.40;99.90
22908;DHT22;11620;50.050;8.690;2023-08-07T04:34:47;11.40;99.90
22908;DHT22;11620;50.050;8.690;2023-08-07T04:37:34;11.40;99.90
22908;DHT22;11620;50.050;8.690;2023-08-07T04:40:20;11.50;99.90
22908;DHT22;11620;50.050;8.690;2023-08-07T04:43:06;11.50;99.90
22908;DHT22;11620;50.050;8.690;2023-08-07T04:45:53;11.40;99.90
22908;DHT22;11620;50.050;8.690;2023-08-07T04:48:40;11.40;99.90
22908;DHT22;11620;50.050;8.690;2023-08-07T04:51:26;11.40;99.90
22908;DHT22;11620;50.050;8.690;2023-08-07T04:54:14;11.50;99.90
22908;DHT22;11620;50.050;8.690;2023-08-07T04:57:00;11.50;99.90
22908;DHT22;11620;50.050;8.690;2023-08-07T04:59:47;11.60;99.90
22908;DHT22;11620;50.050;8.690;2023-08-07T05:02:33;11.70;99.90
22908;DHT22;11620;50.050;8.690;2023-08-07T05:05:20;11.50;99.90
22908;DHT22;11620;50.050;8.690;2023-08-07T05:08:07;11.50;99.90
22908;DHT22;11620;50.050;8.690;2023-08-07T05:10:53;11.50;99.90
22908;DHT22;11620;50.050;8.690;2023-08-07T05:13:40;11.60;99.90
22908;DHT22;11620;50.050;8.690;2023-08-07T05:16:26;11.60;99.90
22908;DHT22;11620;50.050;8.690;2023-08-07T05:19:12;11.60;99.90
22908;DHT22;11620;50.050;8.690;2023-08-07T05:21:59;11.60;99.90
22908;DHT22;11620;50.050;8.690;2023-08-07T05:24:45;11.60;99.90
22908;DHT22;11620;50.050;8.690;2023-08-07T05:27:32;11.60;99.90
22908;DHT22;11620;50.050;8.690;2023-08-07T05:30:18;11.60;99.90
22908;DHT22;11620;50.050;8.690;2023-08-07T05:33:04;11.70;99.90
22908;DHT22;11620;50.050;8.690;2023-08-07T05:35:51;11.70;99.90
22908;DHT22;11620;50.050;8.690;2023-08-07T05:38:38;11.70;99.90
22908;DHT22;11620;50.050;8.690;2023-08-07T05:41:25;11.70;99.90
22908;DHT22;11620;50.050;8.690;2023-08-07T05:44:11;11.60;99.90
22908;DHT22;11620;50.050;8.690;2023-08-07T05:46:57;11.60;99.90
22908;DHT22;11620;50.050;8.690;2023-08-07T05:49:44;11.70;99.90
22908;DHT22;11620;50.050;8.690;2023-08-07T05:52:30;11.70;99.90
22908;DHT22;11620;50.050;8.690;2023-08-07T05:55:16;11.80;99.90
22908;DHT22;11620;50.050;8.690;2023-08-07T05:58:02;11.70;99.90
22908;DHT22;11620;50.050;8.690;2023-08-07T06:00:49;11.70;99.90
22908;DHT22;11620;50.050;8.690;2023-08-07T06:03:35;11.70;99.90
22908;DHT22;11620;50.050;8.690;2023-08-07T06:06:21;11.70;99.90
22908;DHT22;11620;50.050;8.690;2023-08-07T06:09:08;11.70;99.90
22908;DHT22;11620;50.050;8.690;2023-08-07T06:11:54;11.80;99.90
22908;DHT22;11620;50.050;8.690;2023-08-07T06:14:41;11.70;99.90
22908;DHT22;11620;50.050;8.690;2023-08-07T06:17:27;11.70;99.90
22908;DHT22;11620;50.050;8.690;2023-08-07T06:20:13;11.70;99.90
22908;DHT22;11620;50.050;8.690;2023-08-07T06:23:02;11.70;99.90
22908;DHT22;11620;50.050;8.690;2023-08-07T06:25:48;11.80;99.90
22908;DHT22;11620;50.050;8.690;2023-08-07T06:28:35;11.70;99.90
22908;DHT22;11620;50.050;8.690;2023-08-07T06:31:22;11.60;99.90
22908;DHT22;11620;50.050;8.690;2023-08-07T06:34:09;11.60;99.90
22908;DHT22;11620;50.050;8.690;2023-08-07T06:36:55;11.50;99.90
22908;DHT22;11620;50.050;8.690;2023-08-07T06:39:41;11.50;99.90
22908;DHT22;11620;50.050;8.690;2023-08-07T06:42:28;11.50;99.90
22908;DHT22;11620;50.050;8.690;2023-08-07T06:45:14;11.50;99.90
22908;DHT22;11620;50.050;8.690;2023-08-07T06:48:00;11.60;99.90
22908;DHT22;11620;50.050;8.690;2023-08-07T06:50:50;11.60;99.90
22908;DHT22;11620;50.050;8.690;2023-08-07T06:53:36;11.40;99.90
22908;DHT22;11620;50.050;8.690;2023-08-07T06:56:22;11.50;99.90
22908;DHT22;11620;50.050;8.690;2023-08-07T06:59:09;11.50;99.90
22908;DHT22;11620;50.050;8.690;2023-08-07T07:01:55;11.40;99.90
22908;DHT22;11620;50.050;8.690;2023-08-07T07:04:41;11.50;99.90
22908;DHT22;11620;50.050;8.690;2023-08-07T07:07:28;11.50;99.90
22908;DHT22;11620;50.050;8.690;2023-08-07T07:10:14;11.50;99.90
22908;DHT22;11620;50.050;8.690;2023-08-07T07:13:00;11.50;99.90
22908;DHT22;11620;50.050;8.690;2023-08-07T07:15:52;11.50;99.90
22908;DHT22;11620;50.050;8.690;2023-08-07T07:18:39;11.60;99.90
22908;DHT22;11620;50.050;8.690;2023-08-07T07:21:26;11.60;99.90
22908;DHT22;11620;50.050;8.690;2023-08-07T07:24:12;11.70;99.90
22908;DHT22;11620;50.050;8.690;2023-08-07T07:26:58;11.70;99.90
22908;DHT22;11620;50.050;8.690;2023-08-07T07:29:45;11.80;99.90
22908;DHT22;11620;50.050;8.690;2023-08-07T07:32:31;11.80;99.90
22908;DHT22;11620;50.050;8.690;2023-08-07T07:35:17;11.80;99.90
22908;DHT22;11620;50.050;8.690;2023-08-07T07:38:04;11.90;99.90
22908;DHT22;11620;50.050;8.690;2023-08-07T07:40:50;11.80;99.90
22908;DHT22;11620;50.050;8.690;2023-08-07T07:43:37;11.80;99.90
22908;DHT22;11620;50.050;8.690;2023-08-07T07:46:23;11.80;99.90
22908;DHT22;11620;50.050;8.690;2023-08-07T07:49:10;11.90;99.90
22908;DHT22;11620;50.050;8.690;2023-08-07T07:51:56;11.90;99.90
22908;DHT22;11620;50.050;8.690;2023-08-07T07:54:43;11.90;99.90
22908;DHT22;11620;50.050;8.690;2023-08-07T07:57:29;11.90;99.90
22908;DHT22;11620;50.050;8.690;2023-08-07T08:00:15;11.90;99.90
22908;DHT22;11620;50.050;8.690;2023-08-07T08:03:02;12.00;99.90
22908;DHT22;11620;50.050;8.690;2023-08-07T08:05:51;12.00;99.90
22908;DHT22;11620;50.050;8.690;2023-08-07T08:08:38;12.00;99.90
22908;DHT22;11620;50.050;8.690;2023-08-07T08:11:24;12.00;99.90
22908;DHT22;11620;50.050;8.690;2023-08-07T08:14:10;12.00;99.90
22908;DHT22;11620;50.050;8.690;2023-08-07T08:16:57;12.00;99.90
22908;DHT22;11620;50.050;8.690;2023-08-07T08:19:43;12.00;99.90
22908;DHT22;11620;50.050;8.690;2023-08-07T08:22:29;12.10;99.90
22908;DHT22;11620;50.050;8.690;2023-08-07T08:25:16;11.90;99.90
22908;DHT22;11620;50.050;8.690;2023-08-07T08:28:04;12.00;99.90
22908;DHT22;11620;50.050;8.690;2023-08-07T08:30:50;12.10;99.90
22908;DHT22;11620;50.050;8.690;2023-08-07T08:33:36;12.20;99.90
22908;DHT22;11620;50.050;8.690;2023-08-07T08:36:23;12.20;99.90
22908;DHT22;11620;50.050;8.690;2023-08-07T08:39:09;12.20;99.90
22908;DHT22;11620;50.050;8.690;2023-08-07T08:41:55;12.20;99.90
22908;DHT22;11620;50.050;8.690;2023-08-07T08:44:55;12.20;99.90
22908;DHT22;11620;50.050;8.690;2023-08-07T08:47:42;12.10;99.90
22908;DHT22;11620;50.050;8.690;2023-08-07T08:50:32;12.10;99.90
22908;DHT22;11620;50.050;8.690;2023-08-07T08:53:20;12.20;99.90
22908;DHT22;11620;50.050;8.690;2023-08-07T08:56:07;12.20;99.90
22908;DHT22;11620;50.050;8.690;2023-08-07T08:58:54;12.20;99.90
22908;DHT22;11620;50.050;8.690;2023-08-07T09:01:40;12.20;99.90
22908;DHT22;11620;50.050;8.690;2023-08-07T09:04:27;12.10;99.90
22908;DHT22;11620;50.050;8.690;2023-08-07T09:07:15;12.20;99.90
22908;DHT22;11620;50.050;8.690;2023-08-07T09:10:03;12.10;99.90
22908;DHT22;11620;50.050;8.690;2023-08-07T09:12:57;12.20;99.90
22908;DHT22;11620;50.050;8.690;2023-08-07T09:15:46;12.30;99.90
22908;DHT22;11620;50.050;8.690;2023-08-07T09:18:36;12.30;99.90
22908;DHT22;11620;50.050;8.690;2023-08-07T09:21:23;12.40;99.90
22908;DHT22;11620;50.050;8.690;2023-08-07T09:24:09;12.50;99.90
22908;DHT22;11620;50.050;8.690;2023-08-07T09:26:56;12.40;99.90
22908;DHT22;11620;50.050;8.690;2023-08-07T09:29:46;12.40;99.90
22908;DHT22;11620;50.050;8.690;2023-08-07T09:32:32;12.40;99.90
22908;DHT22;11620;50.050;8.690;2023-08-07T09:35:22;12.50;99.90
22908;DHT22;11620;50.050;8.690;2023-08-07T09:38:09;12.40;99.90
22908;DHT22;11620;50.050;8.690;2023-08-07T09:40:59;12.40;99.90
22908;DHT22;11620;50.050;8.690;2023-08-07T09:43:46;12.50;99.90
22908;DHT22;11620;50.050;8.690;2023-08-07T09:46:32;12.50;99.90
22908;DHT22;11620;50.050;8.690;2023-08-07T09:49:32;12.40;99.90
22908;DHT22;11620;50.050;8.690;2023-08-07T09:52:19;12.40;99.90
22908;DHT22;11620;50.050;8.690;2023-08-07T09:55:05;12.40;99.90
22908;DHT22;11620;50.050;8.690;2023-08-07T09:57:51;12.50;99.90
22908;DHT22;11620;50.050;8.690;2023-08-07T10:00:38;12.40;99.90
22908;DHT22;11620;50.050;8.690;2023-08-07T10:03:26;12.40;99.90
22908;DHT22;11620;50.050;8.690;2023-08-07T10:06:13;12.50;99.90
22908;DHT22;11620;50.050;8.690;2023-08-07T10:09:01;12.60;99.90
22908;DHT22;11620;50.050;8.690;2023-08-07T10:11:49;12.70;99.90
22908;DHT22;11620;50.050;8.690;2023-08-07T10:14:35;12.70;99.90
22908;DHT22;11620;50.050;8.690;2023-08-07T10:17:22;12.80;99.90
22908;DHT22;11620;50.050;8.690;2023-08-07T10:20:09;12.70;99.90
22908;DHT22;11620;50.050;8.690;2023-08-07T10:23:08;12.70;99.90
22908;DHT22;11620;50.050;8.690;2023-08-07T10:25:54;12.80;99.90
22908;DHT22;11620;50.050;8.690;2023-08-07T10:28:42;12.80;99.90
22908;DHT22;11620;50.050;8.690;2023-08-07T10:31:30;12.90;99.90
22908;DHT22;11620;50.050;8.690;2023-08-07T10:34:17;12.90;99.90
22908;DHT22;11620;50.050;8.690;2023-08-07T10:37:07;12.90;99.90
22908;DHT22;11620;50.050;8.690;2023-08-07T10:40:04;12.80;99.90
22908;DHT22;11620;50.050;8.690;2023-08-07T10:42:59;12.80;99.90
22908;DHT22;11620;50.050;8.690;2023-08-07T10:45:46;12.80;99.90
22908;DHT22;11620;50.050;8.690;2023-08-07T10:48:55;12.80;99.90
22908;DHT22;11620;50.050;8.690;2023-08-07T10:51:45;12.70;99.90
22908;DHT22;11620;50.050;8.690;2023-08-07T10:54:37;12.80;99.90
22908;DHT22;11620;50.050;8.690;2023-08-07T10:57:31;12.80;99.90
22908;DHT22;11620;50.050;8.690;2023-08-07T11:00:21;12.80;99.90
22908;DHT22;11620;50.050;8.690;2023-08-07T11:03:08;12.80;99.90
22908;DHT22;11620;50.050;8.690;2023-08-07T11:05:57;12.90;99.90
22908;DHT22;11620;50.050;8.690;2023-08-07T11:08:44;12.90;99.90
22908;DHT22;11620;50.050;8.690;2023-08-07T11:11:43;12.90;99.90
22908;DHT22;11620;50.050;8.690;2023-08-07T11:14:29;13.00;99.90
22908;DHT22;11620;50.050;8.690;2023-08-07T11:17:16;13.00;99.90
22908;DHT22;11620;50.050;8.690;2023-08-07T11:20:02;13.00;99.90
22908;DHT22;11620;50.050;8.690;2023-08-07T11:22:50;13.00;99.90
22908;DHT22;11620;50.050;8.690;2023-08-07T11:25:37;13.10;99.90
22908;DHT22;11620;50.050;8.690;2023-08-07T11:28:23;13.10;99.90
22908;DHT22;11620;50.050;8.690;2023-08-07T11:31:11;13.20;99.90
22908;DHT22;11620;50.050;8.690;2023-08-07T11:33:58;13.20;99.90
22908;DHT22;11620;50.050;8.690;2023-08-07T11:36:45;13.10;99.90
22908;DHT22;11620;50.050;8.690;2023-08-07T11:39:31;13.10;99.90
22908;DHT22;11620;50.050;8.690;2023-08-07T11:42:18;13.20;99.90
22908;DHT22;11620;50.050;8.690;2023-08-07T11:45:08;13.10;99.90
22908;DHT22;11620;50.050;8.690;2023-08-07T11:47:55;13.10;99.90
22908;DHT22;11620;50.050;8.690;2023-08-07T11:50:42;13.10;99.90
22908;DHT22;11620;50.050;8.690;2023-08-07T11:53:31;13.10;99.90
22908;DHT22;11620;50.050;8.690;2023-08-07T11:56:17;13.00;99.90
22908;DHT22;11620;50.050;8.690;2023-08-07T11:59:04;13.10;99.90
22908;DHT22;11620;50.050;8.690;2023-08-07T12:01:52;13.10;99.90
22908;DHT22;11620;50.050;8.690;2023-08-07T12:04:38;13.10;99.90
22908;DHT22;11620;50.050;8.690;2023-08-07T12:07:26;13.10;99.90
22908;DHT22;11620;50.050;8.690;2023-08-07T12:10:13;13.20;99.90
22908;DHT22;11620;50.050;8.690;2023-08-07T12:12:59;13.20;99.90
22908;DHT22;11620;50.050;8.690;2023-08-07T12:15:33;13.40;99.90
22908;DHT22;11620;50.050;8.690;2023-08-07T12:18:19;13.40;99.90
22908;DHT22;11620;50.050;8.690;2023-08-07T12:21:07;13.50;99.90
22908;DHT22;11620;50.050;8.690;2023-08-07T12:23:57;13.60;99.90
22908;DHT22;11620;50.050;8.690;2023-08-07T12:26:45;13.60;99.90
22908;DHT22;11620;50.050;8.690;2023-08-07T12:29:31;13.80;99.90
22908;DHT22;11620;50.050;8.690;2023-08-07T12:32:17;13.90;99.90
22908;DHT22;11620;50.050;8.690;2023-08-07T12:35:04;14.10;99.90
22908;DHT22;11620;50.050;8.690;2023-08-07T12:37:54;14.20;99.90
22908;DHT22;11620;50.050;8.690;2023-08-07T12:40:41;14.20;99.90
22908;DHT22;11620;50.050;8.690;2023-08-07T12:43:27;14.20;99.90
22908;DHT22;11620;50.050;8.690;2023-08-07T12:46:13;14.20;99.90
22908;DHT22;11620;50.050;8.690;2023-08-07T12:49:00;14.30;99.90
22908;DHT22;11620;50.050;8.690;2023-08-07T12:51:46;14.50;99.90
22908;DHT22;11620;50.050;8.690;2023-08-07T12:54:32;14.70;99.90
22908;DHT22;11620;50.050;8.690;2023-08-07T12:57:19;14.80;99.90
22908;DHT22;11620;50.050;8.690;2023-08-07T13:00:05;14.80;99.90
22908;DHT22;11620;50.050;8.690;2023-08-07T13:02:54;14.90;99.90
22908;DHT22;11620;50.050;8.690;2023-08-07T13:05:41;15.00;99.90
22908;DHT22;11620;50.050;8.690;2023-08-07T13:08:27;15.00;99.90
22908;DHT22;11620;50.050;8.690;2023-08-07T13:11:13;15.00;99.90
22908;DHT22;11620;50.050;8.690;2023-08-07T13:13:59;15.10;99.90
22908;DHT22;11620;50.050;8.690;2023-08-07T13:16:46;15.20;99.90
22908;DHT22;11620;50.050;8.690;2023-08-07T13:19:32;15.40;99.90
22908;DHT22;11620;50.050;8.690;2023-08-07T13:22:19;15.90;99.90
22908;DHT22;11620;50.050;8.690;2023-08-07T13:25:05;16.10;99.90
22908;DHT22;11620;50.050;8.690;2023-08-07T13:27:52;16.20;99.90
22908;DHT22;11620;50.050;8.690;2023-08-07T13:30:38;16.40;99.90
22908;DHT22;11620;50.050;8.690;2023-08-07T13:33:24;16.70;99.90
22908;DHT22;11620;50.050;8.690;2023-08-07T13:36:10;16.80;99.90
22908;DHT22;11620;50.050;8.690;2023-08-07T13:38:57;16.70;99.90
22908;DHT22;11620;50.050;8.690;2023-08-07T13:41:44;16.70;99.90
22908;DHT22;11620;50.050;8.690;2023-08-07T13:44:30;16.70;99.90
22908;DHT22;11620;50.050;8.690;2023-08-07T13:47:16;16.80;99.90
22908;DHT22;11620;50.050;8.690;2023-08-07T13:50:04;16.80;99.90
22908;DHT22;11620;50.050;8.690;2023-08-07T13:52:51;17.20;99.90
22908;DHT22;11620;50.050;8.690;2023-08-07T13:55:37;17.40;99.90
22908;DHT22;11620;50.050;8.690;2023-08-07T13:58:23;17.50;99.90
22908;DHT22;11620;50.050;8.690;2023-08-07T14:01:10;17.80;99.90
22908;DHT22;11620;50.050;8.690;2023-08-07T14:03:56;17.80;99.90
22908;DHT22;11620;50.050;8.690;2023-08-07T14:06:42;18.10;99.90
22908;DHT22;11620;50.050;8.690;2023-08-07T14:09:30;18.00;99.90
22908;DHT22;11620;50.050;8.690;2023-08-07T14:12:16;18.30;99.90
22908;DHT22;11620;50.050;8.690;2023-08-07T14:15:03;18.40;99.90
22908;DHT22;11620;50.050;8.690;2023-08-07T14:17:50;18.70;99.90
22908;DHT22;11620;50.050;8.690;2023-08-07T14:20:38;18.80;99.90
22908;DHT22;11620;50.050;8.690;2023-08-07T14:23:24;18.90;99.90
22908;DHT22;11620;50.050;8.690;2023-08-07T14:26:11;18.70;99.90
22908;DHT22;11620;50.050;8.690;2023-08-07T14:28:58;18.60;99.90
22908;DHT22;11620;50.050;8.690;2023-08-07T14:31:44;18.80;99.90
22908;DHT22;11620;50.050;8.690;2023-08-07T14:34:31;19.00;99.90
22908;DHT22;11620;50.050;8.690;2023-08-07T14:37:17;19.10;99.90
22908;DHT22;11620;50.050;8.690;2023-08-07T14:40:03;19.30;99.90
22908;DHT22;11620;50.050;8.690;2023-08-07T14:42:50;19.40;99.90
22908;DHT22;11620;50.050;8.690;2023-08-07T14:45:36;19.40;99.90
22908;DHT22;11620;50.050;8.690;2023-08-07T14:48:23;19.10;99.90
22908;DHT22;11620;50.050;8.690;2023-08-07T14:51:09;18.80;99.90
22908;DHT22;11620;50.050;8.690;2023-08-07T14:53:57;18.50;99.90
22908;DHT22;11620;50.050;8.690;2023-08-07T14:56:43;18.30;99.90
22908;DHT22;11620;50.050;8.690;2023-08-07T14:59:30;18.20;99.90
22908;DHT22;11620;50.050;8.690;2023-08-07T15:02:16;18.10;99.90
22908;DHT22;11620;50.050;8.690;2023-08-07T15:05:03;18.00;99.90
22908;DHT22;11620;50.050;8.690;2023-08-07T15:07:49;18.10;99.90
22908;DHT22;11620;50.050;8.690;2023-08-07T15:10:35;18.30;99.90
22908;DHT22;11620;50.050;8.690;2023-08-07T15:13:22;18.50;99.90
22908;DHT22;11620;50.050;8.690;2023-08-07T15:16:09;18.50;99.90
22908;DHT22;11620;50.050;8.690;2023-08-07T15:18:55;18.60;99.90
22908;DHT22;11620;50.050;8.690;2023-08-07T15:21:41;18.70;99.90
22908;DHT22;11620;50.050;8.690;2023-08-07T15:24:28;18.90;99.90
22908;DHT22;11620;50.050;8.690;2023-08-07T15:27:15;19.00;99.90
22908;DHT22;11620;50.050;8.690;2023-08-07T15:30:01;18.90;99.90
22908;DHT22;11620;50.050;8.690;2023-08-07T15:32:48;18.70;99.90
22908;DHT22;11620;50.050;8.690;2023-08-07T15:35:34;18.60;99.90
22908;DHT22;11620;50.050;8.690;2023-08-07T15:38:20;18.40;99.90
22908;DHT22;11620;50.050;8.690;2023-08-07T15:41:07;18.40;99.90
22908;DHT22;11620;50.050;8.690;2023-08-07T15:43:54;18.40;99.90
22908;DHT22;11620;50.050;8.690;2023-08-07T15:46:40;18.30;99.90
22908;DHT22;11620;50.050;8.690;2023-08-07T15:49:26;18.30;99.90
22908;DHT22;11620;50.050;8.690;2023-08-07T15:52:12;18.10;99.90
22908;DHT22;11620;50.050;8.690;2023-08-07T15:54:59;18.10;99.90
22908;DHT22;11620;50.050;8.690;2023-08-07T15:57:45;18.10;99.90
22908;DHT22;11620;50.050;8.690;2023-08-07T16:00:33;18.00;99.90
22908;DHT22;11620;50.050;8.690;2023-08-07T16:03:20;18.10;99.90
22908;DHT22;11620;50.050;8.690;2023-08-07T16:06:08;18.10;99.90
22908;DHT22;11620;50.050;8.690;2023-08-07T16:08:55;18.10;99.90
22908;DHT22;11620;50.050;8.690;2023-08-07T16:11:42;18.20;99.90
22908;DHT22;11620;50.050;8.690;2023-08-07T16:14:28;18.20;99.90
22908;DHT22;11620;50.050;8.690;2023-08-07T16:17:15;18.20;99.90
22908;DHT22;11620;50.050;8.690;2023-08-07T16:20:02;18.10;99.90
22908;DHT22;11620;50.050;8.690;2023-08-07T16:22:49;18.20;99.90
22908;DHT22;11620;50.050;8.690;2023-08-07T16:25:36;18.20;99.90
22908;DHT22;11620;50.050;8.690;2023-08-07T16:28:23;18.30;99.90
22908;DHT22;11620;50.050;8.690;2023-08-07T16:31:09;18.30;99.90
22908;DHT22;11620;50.050;8.690;2023-08-07T16:33:55;18.20;99.90
22908;DHT22;11620;50.050;8.690;2023-08-07T16:36:42;18.20;99.90
22908;DHT22;11620;50.050;8.690;2023-08-07T16:39:28;18.20;99.90
22908;DHT22;11620;50.050;8.690;2023-08-07T16:42:15;18.10;99.90
22908;DHT22;11620;50.050;8.690;2023-08-07T16:45:02;18.00;99.90
22908;DHT22;11620;50.050;8.690;2023-08-07T16:47:49;18.10;99.90
22908;DHT22;11620;50.050;8.690;2023-08-07T16:50:35;18.10;99.90
22908;DHT22;11620;50.050;8.690;2023-08-07T16:53:22;18.00;99.90
22908;DHT22;11620;50.050;8.690;2023-08-07T16:56:08;18.00;99.90
22908;DHT22;11620;50.050;8.690;2023-08-07T16:58:54;18.00;99.90
22908;DHT22;11620;50.050;8.690;2023-08-07T17:01:41;18.00;99.90
22908;DHT22;11620;50.050;8.690;2023-08-07T17:04:27;17.90;99.90
22908;DHT22;11620;50.050;8.690;2023-08-07T17:07:15;17.90;99.90
22908;DHT22;11620;50.050;8.690;2023-08-07T17:10:02;17.90;99.90
22908;DHT22;11620;50.050;8.690;2023-08-07T17:12:48;17.80;99.90
22908;DHT22;11620;50.050;8.690;2023-08-07T17:15:34;17.80;99.90
22908;DHT22;11620;50.050;8.690;2023-08-07T17:18:21;17.70;99.90
22908;DHT22;11620;50.050;8.690;2023-08-07T17:21:07;17.70;99.90
22908;DHT22;11620;50.050;8.690;2023-08-07T17:23:55;17.80;99.90
22908;DHT22;11620;50.050;8.690;2023-08-07T17:26:41;17.70;99.90
22908;DHT22;11620;50.050;8.690;2023-08-07T17:29:28;17.80;99.90
22908;DHT22;11620;50.050;8.690;2023-08-07T17:32:14;17.90;99.90
22908;DHT22;11620;50.050;8.690;2023-08-07T17:35:00;17.90;99.90